createdAt,value
2023-01-05T00:00:17.086Z,15.73
2023-01-05T00:03:19.780Z,16.25
2023-01-05T00:06:22.324Z,16.83
2023-01-05T00:09:24.963Z,17.23
2023-01-05T00:12:45.578Z,14.30
2023-01-05T00:16:06.473Z,16.40
2023-01-05T00:19:30.382Z,15.73
2023-01-05T00:22:38.978Z,15.95
2023-01-05T00:25:41.927Z,15.50
2023-01-05T00:28:44.333Z,17.05
2023-01-05T00:31:46.924Z,15.70
2023-01-05T00:34:50.876Z,16.65
2023-01-05T00:37:53.460Z,17.33
2023-01-05T00:40:56.305Z,15.68
2023-01-05T00:43:58.836Z,15.35
2023-01-05T00:47:01.305Z,14.63
2023-01-05T00:50:04.977Z,14.88
2023-01-05T00:53:07.456Z,14.90
2023-01-05T00:56:09.984Z,15.65
2023-01-05T00:59:12.472Z,15.57
2023-01-05T01:02:15.396Z,15.40
2023-01-05T01:05:18.336Z,15.50
2023-01-05T01:08:21.351Z,14.57
2023-01-05T01:11:24.294Z,15.88
2023-01-05T01:14:27.202Z,15.05
2023-01-05T01:17:31.695Z,15.43
2023-01-05T01:20:34.146Z,15.18
2023-01-05T01:23:37.952Z,15.95
2023-01-05T01:26:40.483Z,16.95
2023-01-05T01:29:43.068Z,18.02
2023-01-05T01:32:45.631Z,16.87
2023-01-05T01:38:50.630Z,15.98
2023-01-05T01:41:53.106Z,18.20
2023-01-05T01:44:58.365Z,18.80
2023-01-05T01:48:05.990Z,17.67
2023-01-05T01:51:14.934Z,16.42
2023-01-05T01:54:18.358Z,14.05
2023-01-05T01:57:22.317Z,14.20
2023-01-05T02:00:24.958Z,13.35
2023-01-05T02:03:29.495Z,12.10
2023-01-05T02:06:31.914Z,12.55
2023-01-05T02:09:34.734Z,11.85
2023-01-05T02:13:17.882Z,12.07
2023-01-05T02:16:40.373Z,10.90
2023-01-05T02:20:25.622Z,10.83
2023-01-05T02:23:43.410Z,11.85
2023-01-05T02:27:33.371Z,11.07
2023-01-05T02:31:04.602Z,10.73
2023-01-05T02:34:39.536Z,11.27
2023-01-05T02:37:48.774Z,12.07
2023-01-05T02:40:57.695Z,11.60
2023-01-05T02:44:01.372Z,11.45
2023-01-05T02:47:29.766Z,10.45
2023-01-05T02:51:01.584Z,10.70
2023-01-05T02:54:14.638Z,10.27
2023-01-05T02:57:43.186Z,11.63
2023-01-05T03:01:02.123Z,10.70
2023-01-05T03:04:15.039Z,10.05
2023-01-05T03:07:26.011Z,10.77
2023-01-05T03:10:48.885Z,9.80
2023-01-05T03:14:00.996Z,10.52
2023-01-05T03:17:06.520Z,9.60
2023-01-05T03:20:12.587Z,9.73
2023-01-05T03:23:36.038Z,9.48
2023-01-05T03:26:58.889Z,10.23
2023-01-05T03:30:20.509Z,10.18
2023-01-05T03:33:54.485Z,11.18
2023-01-05T03:37:02.038Z,10.77
2023-01-05T03:40:09.415Z,10.88
2023-01-05T03:43:14.156Z,10.70
2023-01-05T03:46:21.967Z,11.95
2023-01-05T03:49:25.124Z,12.35
2023-01-05T03:52:28.158Z,12.85
2023-01-05T03:55:30.714Z,12.80
2023-01-05T03:58:33.447Z,12.40
2023-01-05T04:01:36.716Z,11.48
2023-01-05T04:04:39.903Z,12.25
2023-01-05T04:07:44.557Z,10.77
2023-01-05T04:10:48.131Z,11.55
2023-01-05T04:13:51.480Z,10.50
2023-01-05T04:16:54.297Z,9.90
2023-01-05T04:19:59.625Z,9.68
2023-01-05T04:23:02.975Z,9.02
2023-01-05T04:26:09.373Z,8.88
2023-01-05T04:29:12.801Z,8.57
2023-01-05T04:32:16.614Z,8.68
2023-01-05T04:35:20.053Z,7.43
2023-01-05T04:38:24.221Z,8.43
2023-01-05T04:41:28.447Z,9.38
2023-01-05T04:44:31.563Z,9.03
2023-01-05T04:47:37.963Z,9.63
2023-01-05T04:50:40.850Z,9.27
2023-01-05T04:53:44.002Z,8.88
2023-01-05T04:56:50.716Z,8.85
2023-01-05T04:59:54.400Z,9.93
2023-01-05T05:02:57.262Z,10.57
2023-01-05T05:06:00.686Z,10.38
2023-01-05T05:09:04.901Z,10.07
2023-01-05T05:12:07.830Z,10.30
2023-01-05T05:15:11.794Z,11.67
2023-01-05T05:18:19.641Z,10.77
2023-01-05T05:21:23.703Z,9.50
2023-01-05T05:24:26.220Z,8.07
2023-01-05T05:27:29.249Z,8.30
2023-01-05T05:30:32.087Z,7.77
2023-01-05T05:33:34.824Z,7.30
2023-01-05T05:36:38.161Z,5.53
2023-01-05T05:39:40.605Z,4.18
2023-01-05T05:42:43.152Z,3.78
2023-01-05T05:45:50.412Z,4.10
2023-01-05T05:48:53.243Z,5.43
2023-01-05T05:51:55.685Z,6.32
2023-01-05T05:54:58.138Z,7.03
2023-01-05T05:58:00.696Z,8.52
2023-01-05T06:01:03.319Z,10.07
2023-01-05T06:04:05.856Z,9.18
2023-01-05T06:07:08.391Z,10.52
2023-01-05T06:10:11.089Z,9.43
2023-01-05T06:13:13.649Z,10.40
2023-01-05T06:16:16.272Z,10.77
2023-01-05T06:19:18.800Z,10.05
2023-01-05T06:22:21.396Z,11.05
2023-01-05T06:25:23.923Z,9.43
2023-01-05T06:28:26.504Z,9.48
2023-01-05T06:31:29.175Z,10.80
2023-01-05T06:34:31.704Z,9.45
2023-01-05T06:37:34.254Z,10.32
2023-01-05T06:40:37.022Z,10.88
2023-01-05T06:43:39.623Z,11.27
2023-01-05T06:46:42.162Z,11.70
2023-01-05T06:49:44.632Z,11.60
2023-01-05T06:52:47.232Z,11.77
2023-01-05T06:55:49.733Z,11.60
2023-01-05T06:58:52.555Z,10.48
2023-01-05T07:01:55.437Z,11.03
2023-01-05T07:04:58.164Z,10.30
2023-01-05T07:08:00.609Z,11.13
2023-01-05T07:11:03.059Z,12.40
2023-01-05T07:14:05.785Z,13.38
2023-01-05T07:17:08.343Z,13.43
2023-01-05T07:20:11.010Z,13.27
2023-01-05T07:23:13.609Z,11.55
2023-01-05T07:26:16.075Z,9.60
2023-01-05T07:29:18.644Z,10.57
2023-01-05T07:32:21.229Z,8.27
2023-01-05T07:35:23.667Z,10.52
2023-01-05T07:38:26.084Z,9.80
2023-01-05T07:41:28.555Z,10.93
2023-01-05T07:44:31.054Z,10.27
2023-01-05T07:47:33.614Z,10.67
2023-01-05T07:50:36.136Z,9.73
2023-01-05T07:53:44.423Z,9.93
2023-01-05T07:56:47.818Z,12.65
2023-01-05T07:59:50.359Z,10.90
2023-01-05T08:02:53.170Z,9.37
2023-01-05T08:05:55.622Z,8.60
2023-01-05T08:09:18.056Z,6.03
2023-01-05T08:12:20.598Z,4.60
2023-01-05T08:15:23.158Z,6.97
2023-01-05T08:18:26.720Z,6.90
2023-01-05T08:21:29.406Z,8.63
2023-01-05T08:24:32.083Z,9.77
2023-01-05T08:27:35.143Z,10.00
2023-01-05T08:30:38.027Z,9.45
2023-01-05T08:33:40.473Z,11.07
2023-01-05T08:36:42.939Z,8.75
2023-01-05T08:39:45.471Z,8.25
2023-01-05T08:42:48.411Z,9.00
2023-01-05T08:45:50.871Z,8.95
2023-01-05T08:48:56.009Z,9.77
2023-01-05T08:51:58.422Z,9.95
2023-01-05T08:55:00.900Z,9.02
2023-01-05T08:58:03.531Z,9.52
2023-01-05T09:01:10.946Z,9.73
2023-01-05T09:04:13.555Z,9.27
2023-01-05T09:07:16.250Z,9.25
2023-01-05T09:10:18.955Z,9.57
2023-01-05T09:13:21.429Z,9.18
2023-01-05T09:19:49.699Z,8.57
2023-01-05T09:22:52.280Z,8.80
2023-01-05T09:25:54.786Z,9.45
2023-01-05T09:28:57.263Z,8.80
2023-01-05T09:31:59.834Z,7.70
2023-01-05T09:35:02.431Z,6.73
2023-01-05T09:38:04.977Z,5.93
2023-01-05T09:41:23.085Z,7.47
2023-01-05T09:44:35.411Z,8.20
2023-01-05T09:47:46.736Z,7.68
2023-01-05T09:50:51.379Z,9.53
2023-01-05T09:53:54.149Z,9.18
2023-01-05T09:57:09.055Z,10.00
2023-01-05T10:00:16.899Z,9.32
2023-01-05T10:04:01.900Z,9.63
2023-01-05T10:06:51.088Z,7.53
2023-01-05T10:09:58.463Z,7.78
2023-01-05T10:13:03.795Z,9.45
2023-01-05T10:16:06.872Z,7.70
2023-01-05T10:19:18.477Z,7.55
2023-01-05T10:22:38.487Z,8.00
2023-01-05T10:25:59.790Z,7.88
2023-01-05T10:29:11.125Z,7.32
2023-01-05T10:32:42.930Z,2.05
2023-01-05T10:36:13.131Z,2.90
2023-01-05T10:39:38.485Z,1.57
2023-01-05T10:43:03.799Z,4.85
2023-01-05T10:49:33.487Z,8.32
2023-01-05T10:52:35.914Z,1.13
2023-01-05T10:55:48.686Z,0.40
2023-01-05T10:59:11.963Z,0.85
2023-01-05T11:02:14.609Z,0.60
2023-01-05T11:05:42.822Z,0.40
2023-01-05T11:08:46.153Z,0.15
2023-01-05T11:12:00.402Z,0.20
2023-01-05T11:15:03.379Z,0.13
2023-01-05T11:18:07.793Z,0.25
2023-01-05T11:21:15.402Z,0.30
2023-01-05T11:24:23.668Z,0.20
2023-01-05T11:27:26.235Z,0.00
2023-01-05T11:30:28.833Z,0.13
2023-01-05T11:33:34.834Z,0.15
2023-01-05T11:36:38.409Z,0.08
2023-01-05T11:39:50.097Z,0.30
2023-01-05T11:42:52.607Z,0.60
2023-01-05T11:45:59.663Z,0.25
2023-01-05T11:49:02.385Z,1.10
2023-01-05T11:52:28.282Z,0.47
2023-01-05T11:55:30.766Z,0.35
2023-01-05T11:58:57.724Z,0.33
2023-01-05T12:02:29.105Z,0.43
2023-01-05T12:05:46.194Z,0.82
2023-01-05T12:09:22.707Z,1.52
2023-01-05T12:13:09.578Z,1.02
2023-01-05T12:16:20.953Z,1.23
2023-01-05T12:19:26.294Z,1.40
2023-01-05T12:23:07.630Z,1.48
2023-01-05T12:26:30.008Z,0.93
2023-01-05T12:31:59.418Z,1.02
2023-01-05T12:37:16.552Z,0.80
2023-01-05T12:40:37.690Z,0.65
2023-01-05T12:43:45.977Z,0.73
2023-01-05T12:47:03.432Z,1.00
2023-01-05T12:50:25.306Z,2.00
2023-01-05T12:53:35.768Z,1.42
2023-01-05T12:57:07.741Z,1.00
2023-01-05T13:00:14.560Z,1.35
2023-01-05T13:03:24.123Z,1.77
2023-01-05T13:06:28.379Z,0.80
2023-01-05T13:09:33.321Z,1.30
2023-01-05T13:12:38.353Z,1.52
2023-01-05T13:15:46.203Z,1.65
2023-01-05T13:19:13.330Z,1.90
2023-01-05T13:22:23.450Z,2.40
2023-01-05T13:25:30.543Z,2.50
2023-01-05T13:28:35.105Z,4.90
2023-01-05T13:31:52.429Z,2.30
2023-01-05T13:35:13.235Z,1.52
2023-01-05T13:38:26.488Z,2.63
2023-01-05T13:41:38.783Z,1.83
2023-01-05T13:44:50.031Z,1.80
2023-01-05T13:48:13.339Z,2.42
2023-01-05T13:51:52.735Z,1.90
2023-01-05T13:55:02.419Z,2.13
2023-01-05T13:58:18.572Z,1.38
2023-01-05T14:01:36.212Z,0.82
2023-01-05T14:04:46.187Z,1.33
2023-01-05T14:07:48.695Z,1.45
2023-01-05T14:11:09.803Z,1.30
2023-01-05T14:17:52.152Z,1.38
2023-01-05T14:20:57.175Z,1.40
2023-01-05T14:23:59.873Z,1.17
2023-01-05T14:27:12.654Z,1.20
2023-01-05T14:30:21.639Z,1.95
2023-01-05T14:33:24.249Z,1.63
2023-01-05T14:36:31.525Z,0.80
2023-01-05T14:39:44.325Z,0.90
2023-01-05T14:42:49.445Z,1.10
2023-01-05T14:46:02.798Z,0.95
2023-01-05T14:49:11.392Z,0.90
2023-01-05T14:52:37.109Z,0.80
2023-01-05T14:56:00.825Z,0.70
2023-01-05T14:59:20.113Z,1.00
2023-01-05T15:02:29.843Z,1.85
2023-01-05T15:05:33.771Z,1.23
2023-01-05T15:09:05.530Z,0.98
2023-01-05T15:12:26.318Z,0.50
2023-01-05T15:15:54.133Z,0.80
2023-01-05T15:19:15.973Z,0.73
2023-01-05T15:22:41.536Z,0.90
2023-01-05T15:26:16.088Z,1.50
2023-01-05T15:29:33.510Z,1.73
2023-01-05T15:32:42.474Z,4.50
2023-01-05T15:35:55.598Z,1.50
2023-01-05T15:38:58.253Z,1.90
2023-01-05T15:42:07.083Z,2.75
2023-01-05T15:45:18.016Z,1.55
2023-01-05T15:48:31.077Z,0.70
2023-01-05T15:51:34.953Z,1.00
2023-01-05T15:54:37.377Z,1.13
2023-01-05T15:57:40.502Z,1.17
2023-01-05T16:00:43.087Z,1.50
2023-01-05T16:03:48.396Z,2.30
2023-01-05T16:07:01.970Z,2.75
2023-01-05T16:10:05.591Z,1.60
2023-01-05T16:13:22.641Z,3.00
2023-01-05T16:19:59.636Z,3.77
2023-01-05T16:23:18.977Z,2.63
2023-01-05T16:26:22.101Z,2.83
2023-01-05T16:29:44.515Z,2.10
2023-01-05T16:33:11.940Z,3.15
2023-01-05T16:36:22.646Z,2.93
2023-01-05T16:39:25.601Z,2.13
2023-01-05T16:42:40.609Z,2.08
2023-01-05T16:45:43.355Z,2.22
2023-01-05T16:49:01.640Z,3.63
2023-01-05T16:52:13.151Z,1.40
2023-01-05T16:55:28.377Z,1.85
2023-01-05T16:58:31.216Z,1.67
2023-01-05T17:01:40.561Z,2.40
2023-01-05T17:04:43.047Z,1.50
2023-01-05T17:07:47.993Z,1.90
2023-01-05T17:10:51.538Z,1.35
2023-01-05T17:13:55.171Z,1.50
2023-01-05T17:17:00.094Z,1.70
2023-01-05T17:20:02.613Z,2.55
2023-01-05T17:23:05.115Z,2.80
2023-01-05T17:26:11.765Z,1.42
2023-01-05T17:29:23.698Z,1.17
2023-01-05T17:32:26.343Z,1.33
2023-01-05T17:35:28.856Z,1.17
2023-01-05T17:38:31.819Z,0.97
2023-01-05T17:44:41.767Z,0.60
2023-01-05T17:47:44.824Z,0.70
2023-01-05T17:50:47.317Z,0.85
2023-01-05T17:53:49.810Z,0.47
2023-01-05T17:56:53.026Z,0.47
2023-01-05T17:59:55.515Z,0.80
2023-01-05T18:02:58.060Z,0.52
2023-01-05T18:06:01.412Z,0.55
2023-01-05T18:09:03.949Z,1.00
2023-01-05T18:12:06.774Z,1.05
2023-01-05T18:15:10.870Z,0.55
2023-01-05T18:18:14.026Z,0.40
2023-01-05T18:21:16.544Z,0.80
2023-01-05T18:24:19.123Z,0.90
2023-01-05T18:27:21.606Z,0.20
2023-01-05T18:30:24.456Z,0.40
2023-01-05T18:33:27.782Z,0.40
2023-01-05T18:36:30.286Z,0.40
2023-01-05T18:39:32.781Z,1.10
2023-01-05T18:42:36.717Z,0.57
2023-01-05T18:45:40.270Z,0.63
2023-01-05T18:48:42.912Z,1.00
2023-01-05T18:51:45.311Z,1.05
2023-01-05T18:54:47.816Z,1.10
2023-01-05T18:57:50.414Z,0.65
2023-01-05T19:00:52.969Z,0.98
2023-01-05T19:03:55.544Z,0.55
2023-01-05T19:06:57.958Z,0.47
2023-01-05T19:10:00.470Z,0.60
2023-01-05T19:13:03.499Z,0.77
2023-01-05T19:16:06.596Z,1.10
2023-01-05T19:19:12.157Z,0.55
2023-01-05T19:22:14.891Z,0.90
2023-01-05T19:25:18.998Z,0.50
2023-01-05T19:28:21.564Z,0.82
2023-01-05T19:31:24.804Z,0.95
2023-01-05T19:34:27.602Z,1.30
2023-01-05T19:37:30.063Z,1.10
2023-01-05T19:40:32.554Z,1.20
2023-01-05T19:43:36.358Z,1.40
2023-01-05T19:46:39.192Z,1.90
2023-01-05T19:49:41.716Z,1.50
2023-01-05T19:52:44.719Z,1.00
2023-01-05T19:55:47.175Z,1.20
2023-01-05T19:59:04.496Z,1.60
2023-01-05T20:02:07.791Z,0.90
2023-01-05T20:05:10.842Z,0.90
2023-01-05T20:08:13.567Z,0.95
2023-01-05T20:11:16.059Z,1.50
2023-01-05T20:14:24.302Z,1.95
2023-01-05T20:17:27.384Z,1.15
2023-01-05T20:20:30.016Z,1.58
2023-01-05T20:23:36.834Z,1.60
2023-01-05T20:26:42.062Z,0.40
2023-01-05T20:29:44.871Z,0.77
2023-01-05T20:32:47.397Z,0.85
2023-01-05T20:35:50.085Z,0.60
2023-01-05T20:38:52.865Z,0.40
2023-01-05T20:41:55.592Z,0.50
2023-01-05T20:44:58.288Z,0.45
2023-01-05T20:48:07.350Z,0.55
2023-01-05T20:51:12.813Z,0.68
2023-01-05T20:54:15.815Z,0.32
2023-01-05T20:57:18.592Z,0.30
2023-01-05T21:00:21.278Z,0.30
2023-01-05T21:03:23.875Z,0.52
2023-01-05T21:06:28.230Z,0.65
2023-01-05T21:09:31.522Z,0.90
2023-01-05T21:12:34.322Z,0.57
2023-01-05T21:15:36.839Z,0.52
2023-01-05T21:18:39.269Z,0.77
2023-01-05T21:21:42.155Z,0.30
2023-01-05T21:24:45.461Z,0.90
2023-01-05T21:27:48.035Z,0.50
2023-01-05T21:30:51.369Z,1.27
2023-01-05T21:33:54.490Z,0.40
2023-01-05T21:36:56.968Z,0.50
2023-01-05T21:40:02.437Z,0.50
2023-01-05T21:43:05.075Z,0.50
2023-01-05T21:46:12.023Z,0.40
2023-01-05T21:49:15.141Z,1.00
2023-01-05T21:52:35.946Z,0.75
2023-01-05T21:55:56.701Z,0.65
2023-01-05T21:59:00.380Z,0.90
2023-01-05T22:02:03.409Z,0.60
2023-01-05T22:05:06.398Z,1.15
2023-01-05T22:08:09.040Z,0.80
2023-01-05T22:11:11.923Z,0.93
2023-01-05T22:14:15.052Z,1.10
2023-01-05T22:17:17.564Z,0.95
2023-01-05T22:20:21.947Z,0.60
2023-01-05T22:23:27.067Z,0.60
2023-01-05T22:26:30.325Z,0.70
2023-01-05T22:29:32.928Z,0.50
2023-01-05T22:32:36.027Z,0.77
2023-01-05T22:35:41.287Z,0.57
2023-01-05T22:38:45.651Z,0.73
2023-01-05T22:41:50.049Z,0.85
2023-01-05T22:44:52.538Z,0.50
2023-01-05T22:47:55.003Z,0.52
2023-01-05T22:51:10.194Z,0.45
2023-01-05T22:54:12.914Z,1.02
2023-01-05T22:57:15.385Z,0.60
2023-01-05T23:00:18.068Z,0.57
2023-01-05T23:03:21.824Z,0.80
2023-01-05T23:06:25.284Z,0.32
2023-01-05T23:09:27.789Z,0.82
2023-01-05T23:12:30.295Z,0.50
2023-01-05T23:15:33.344Z,0.40
2023-01-05T23:18:37.257Z,0.90
2023-01-05T23:21:39.708Z,0.60
2023-01-05T23:24:42.482Z,0.40
2023-01-05T23:27:44.942Z,0.68
2023-01-05T23:30:49.634Z,0.50
2023-01-05T23:33:52.390Z,1.08
2023-01-05T23:36:54.880Z,0.55
2023-01-05T23:39:57.414Z,0.50
2023-01-05T23:43:00.042Z,0.77
2023-01-05T23:46:08.215Z,0.30
2023-01-05T23:49:10.827Z,0.52
2023-01-05T23:52:13.296Z,0.40
2023-01-05T23:55:16.173Z,0.65
2023-01-05T23:58:18.878Z,1.20
